• Join FlightAware (Why Join?)
  • Login
  • US Flag 
12:02AM EDT


 

Airport Tracker/Info


-or-


 

Live Flight TrackerFlight Track Log ✈ N425EM ✈ 18-Feb-2014 ✈ KGAD - KHGR

Flight Track Log - Related Links

Times and Time Zones

All times are in EST time to prevent confusion due to time zone crossing. See the N425EM flight status page for this flight to view local times or setup timezone preferences in your user account.

Time Position Orientation Groundspeed Altitude Reporting Facility
EST Latitude Longitude Course Direction KTS MPH feet Rate Location/Type
12:55PM 34.0714 -85.9597 42° Northeast 214 246 5,000  Level Atlanta Center
12:57PM 34.1647 -85.8589 42° Northeast 214 246 6,600 1,020 Climbing Atlanta Center
12:58PM 34.2094 -85.8022 46° Northeast 209 241 8,200 1,380 Climbing Atlanta Center
12:59PM 34.2456 -85.7575 46° Northeast 197 227 9,400 1,260 Climbing Atlanta Center
01:00PM 34.2881 -85.7058 45° Northeast 198 228 10,800 1,440 Climbing Atlanta Center
01:01PM 34.3242 -85.6611 46° Northeast 198 228 12,300 1,260 Climbing Atlanta Center
01:02PM 34.3581 -85.6164 47° Northeast 198 228 13,400 1,200 Climbing Atlanta Center
01:03PM 34.4006 -85.5619 47° Northeast 198 228 14,800 1,320 Climbing Atlanta Center
01:04PM 34.4431 -85.5097 45° Northeast 198 228 16,100 1,200 Climbing Atlanta Center
01:05PM 34.4875 -85.4575 44° Northeast 203 234 17,300 1,020 Climbing Atlanta Center
01:06PM 34.5317 -85.4028 46° Northeast 214 246 18,200 840 Climbing Atlanta Center
01:07PM 34.5783 -85.3481 44° Northeast 222 255 19,000 360 Climbing Atlanta Center
01:08PM 34.6292 -85.2808 47° Northeast 240 276 19,000 300 Level Atlanta Center
01:09PM 34.6797 -85.2233 43° Northeast 246 283 19,700 900 Climbing Atlanta Center
01:10PM 34.7219 -85.1658 48° Northeast 236 272 20,800 600 Climbing Atlanta Center
01:11PM 34.7686 -85.1058 47° Northeast 236 272 21,000 60 Climbing Atlanta Center
01:12PM 34.8233 -85.0408 44° Northeast 248 285 21,000  Level Atlanta Center
01:13PM 34.8758 -84.9756 46° Northeast 253 291 21,000  Level Atlanta Center
01:14PM 34.9286 -84.9103 45° Northeast 259 298 21,000  Level Atlanta Center
01:15PM 34.9811 -84.8425 47° Northeast 264 304 21,000  Level Atlanta Center
01:16PM 35.0339 -84.7769 45° Northeast 264 304 21,000  Level Atlanta Center
01:17PM 35.0864 -84.7064 48° Northeast 264 304 21,000  Level Atlanta Center
01:18PM 35.1389 -84.6433 44° Northeast 264 304 21,000  Level Atlanta Center
01:19PM 35.1892 -84.5750 48° Northeast 264 304 21,000 -60 Level Atlanta Center
01:20PM 35.2439 -84.5092 44° Northeast 264 304 20,900  Descending Atlanta Center
01:21PM 35.2942 -84.4408 48° Northeast 264 304 21,000  Climbing Atlanta Center
01:22PM 35.3486 -84.3747 45° Northeast 264 304 21,000  Level Atlanta Center
01:23PM 35.4008 -84.3064 47° Northeast 264 304 21,000 -60 Level Atlanta Center
01:24PM 35.4553 -84.2375 46° Northeast 264 304 20,900 -60 Descending Atlanta Center
01:25PM 35.5075 -84.1689 47° Northeast 264 304 20,900  Level Atlanta Center
01:26PM 35.5617 -84.1000 46° Northeast 264 304 21,000  Climbing Atlanta Center
01:27PM 35.6139 -84.0311 47° Northeast 271 312 20,900 -60 Descending Atlanta Center
01:28PM 35.6661 -83.9647 46° Northeast 266 306 20,900  Level Atlanta Center
01:29PM 35.7203 -83.8981 45° Northeast 266 306 20,900  Level Atlanta Center
01:30PM 35.7703 -83.8289 48° Northeast 266 306 20,900  Level Atlanta Center
01:31PM 35.8222 -83.7622 46° Northeast 266 306 20,900  Level Atlanta Center
01:32PM 35.8742 -83.6928 47° Northeast 266 306 20,900  Level Atlanta Center
01:33PM 35.9283 -83.6258 45° Northeast 266 306 20,900  Level Atlanta Center
01:34PM 35.9803 -83.5564 47° Northeast 266 306 20,900  Level Atlanta Center
01:35PM 36.0278 -83.4944 47° Northeast 266 306 20,900  Level Atlanta Center
01:36PM 36.0797 -83.4194 49° Northeast 272 313 20,900  Level Atlanta Center
01:37PM 36.1336 -83.3550 44° Northeast 267 307 20,900  Level Atlanta Center
01:38PM 36.1853 -83.2850 48° Northeast 267 307 20,900  Level Atlanta Center
01:39PM 36.2350 -83.2175 48° Northeast 262 302 20,900  Level Atlanta Center
01:40PM 36.2844 -83.1500 48° Northeast 262 302 20,900  Level Atlanta Center
01:41PM 36.3383 -83.0825 45° Northeast 262 302 20,900  Level Atlanta Center
01:42PM 36.3878 -83.0122 49° Northeast 267 307 20,900  Level Atlanta Center
01:43PM 36.4236 -82.9681 45° Northeast 271 312 20,900  Level Indianapolis Center
01:44PM 36.4833 -82.8878 47° Northeast 271 312 20,900  Level Indianapolis Center
01:45PM 36.5353 -82.8186 47° Northeast 271 312 20,900  Level Indianapolis Center
01:46PM 36.5864 -82.7503 47° Northeast 271 312 20,900  Level Indianapolis Center
01:47PM 36.6358 -82.6794 49° Northeast 271 312 20,900  Level Indianapolis Center
01:48PM 36.6878 -82.6139 45° Northeast 271 312 20,900  Level Indianapolis Center
01:49PM 36.7464 -82.5333 48° Northeast 271 312 20,900  Level Indianapolis Center
01:50PM 36.7969 -82.4633 48° Northeast 270 311 20,900  Level Indianapolis Center
01:51PM 36.8478 -82.3958 47° Northeast 270 311 20,900  Level Indianapolis Center
01:52PM 36.8975 -82.3281 47° Northeast 269 310 20,900  Level Indianapolis Center
01:53PM 36.9486 -82.2606 47° Northeast 269 310 20,900  Level Indianapolis Center
01:54PM 37.0061 -82.1778 49° Northeast 269 310 20,900  Level Indianapolis Center
01:55PM 37.0592 -82.1106 45° Northeast 269 310 20,900  Level Indianapolis Center
01:56PM 37.1086 -82.0397 49° Northeast 269 310 20,900  Level Indianapolis Center
01:57PM 37.1603 -81.9719 46° Northeast 269 310 20,900  Level Indianapolis Center
01:58PM 37.2100 -81.9000 49° Northeast 270 311 20,900  Level Indianapolis Center
01:59PM 37.2625 -81.8311 46° Northeast 270 311 20,900  Level Indianapolis Center
02:00PM 37.3192 -81.7464 50° Northeast 270 311 20,900  Level Indianapolis Center
02:01PM 37.3692 -81.6764 48° Northeast 270 311 20,900  Level Indianapolis Center
02:02PM 37.4208 -81.6064 47° Northeast 271 312 20,900  Level Indianapolis Center
02:03PM 37.4703 -81.5353 49° Northeast 270 311 20,900  Level Indianapolis Center
02:04PM 37.5231 -81.4619 48° Northeast 272 313 20,900  Level Indianapolis Center
02:05PM 37.5753 -81.3908 47° Northeast 279 321 20,900  Level Indianapolis Center
02:07PM 37.6350 -81.3083 48° Northeast 277 319 20,900  Level Indianapolis Center
02:08PM 37.6844 -81.2369 49° Northeast 277 319 20,900  Level Indianapolis Center
02:09PM 37.7333 -81.1681 48° Northeast 275 316 20,900  Level Indianapolis Center
02:10PM 37.7822 -81.0997 48° Northeast 273 314 20,900  Level Indianapolis Center
02:11PM 37.8342 -81.0253 49° Northeast 273 314 20,900  Level Indianapolis Center
02:12PM 37.8958 -80.9389 48° Northeast 274 315 20,900  Level Indianapolis Center
02:13PM 37.9447 -80.8669 49° Northeast 273 314 20,900  Level Indianapolis Center
02:14PM 37.9956 -80.7958 48° Northeast 273 314 20,900  Level Indianapolis Center
02:15PM 38.0478 -80.7236 47° Northeast 274 315 20,900  Level Indianapolis Center
02:16PM 38.0969 -80.6506 49° Northeast 274 315 20,900  Level Indianapolis Center
02:17PM 38.1472 -80.5794 48° Northeast 274 315 20,900  Level Indianapolis Center
02:18PM 38.2069 -80.4933 49° Northeast 273 314 20,900  Level Indianapolis Center
02:19PM 38.2461 -80.4361 49° Northeast 273 314 20,900  Level Indianapolis Center
02:20PM 38.3047 -80.3511 49° Northeast 271 312 20,900  Level Indianapolis Center
02:21PM 38.3489 -80.2844 50° Northeast 268 308 20,900  Level Indianapolis Center
02:22PM 38.4081 -80.2000 48° Northeast 268 308 20,900  Level Indianapolis Center
02:23PM 38.4564 -80.1364 46° Northeast 268 308 20,900  Level Washington Center
02:24PM 38.5069 -80.0650 48° Northeast 268 308 20,900  Level Washington Center
02:25PM 38.5556 -79.9911 50° Northeast 268 308 20,900  Level Washington Center
02:26PM 38.6061 -79.9169 49° Northeast 268 308 20,900  Level Washington Center
02:27PM 38.6611 -79.8378 48° Northeast 268 308 20,900  Level Washington Center
02:28PM 38.7097 -79.7661 49° Northeast 268 308 20,900  Level Washington Center
02:29PM 38.7578 -79.6969 48° Northeast 268 308 20,900  Level Washington Center
02:30PM 38.8061 -79.6278 48° Northeast 268 308 20,900  Level Washington Center
02:31PM 38.8547 -79.5478 52° Northeast 273 314 20,900  Level Washington Center
02:32PM 38.9008 -79.4728 52° Northeast 273 314 20,900  Level Washington Center
02:33PM 38.9489 -79.4033 48° Northeast 268 308 20,900  Level Washington Center
02:34PM 38.9969 -79.3308 50° Northeast 262 302 20,900 -360 Level Washington Center
02:35PM 39.0431 -79.2611 50° Northeast 262 302 20,200 -900 Descending Washington Center
02:36PM 39.0908 -79.1914 49° Northeast 257 296 19,200 -1,080 Descending Washington Center
02:37PM 39.1369 -79.1214 50° Northeast 257 296 18,100 -1,080 Descending Washington Center
02:38PM 39.1847 -79.0486 50° Northeast 257 296 17,100 -1,080 Descending Washington Center
02:39PM 39.2306 -78.9758 51° Northeast 257 296 16,000 -1,200 Descending Washington Center
02:40PM 39.2661 -78.8944 61° Northeast 257 296 14,800 -1,260 Descending Washington Center
02:41PM 39.2975 -78.8128 64° Northeast 257 296 13,500 -1,140 Descending Washington Center
02:42PM 39.3311 -78.7308 62° Northeast 252 290 12,600 -960 Descending Washington Center
02:43PM 39.3603 -78.6464 66° East 252 290 11,700 -840 Descending Washington Center
02:44PM 39.3958 -78.5564 63° Northeast 262 302 11,000 -840 Descending Washington Center
02:45PM 39.4269 -78.4772 63° Northeast 257 296 10,000 -1,020 Descending Washington Center
02:46PM 39.4539 -78.3975 66° East 250 288 9,000 -1,140 Descending Washington Center
02:47PM 39.4808 -78.3181 66° East 245 282 7,800 -1,020 Descending Washington Center
02:48PM 39.5136 -78.2439 60° Northeast 239 275 7,000 -600 Descending Washington Center
02:49PM 39.5403 -78.1694 65° Northeast 234 269 6,700 -660 Descending Washington Center
02:50PM 39.5689 -78.0925 64° Northeast 234 269 5,700 -780 Descending Washington Center
02:51PM 39.5931 -78.0314 63° Northeast 234 269 5,200 -900 Descending Washington Center
02:53PM 39.6500 -77.8667 66° East 206 237 3,000 -840 Descending Potomac TRACON
02:54PM 39.6667 -77.8000 72° East 193 222 2,600 -360 Descending Potomac TRACON
02:55PM 39.6833 -77.7500 67° East 154 177 2,300 -300 Descending Potomac TRACON
02:56PM 39.6833 -77.7000 90° East 153 176 2,000 -480 Descending Potomac TRACON
02:57PM 39.7167 -77.6833 21° North 165 190 1,400 -720 Descending Potomac TRACON
02:59PM 39.7000 -77.7167 237° Southwest  Level FlightAware Approximate
03:06PM 39.7085 -77.7265 237° Southwest  Level Estimated
03:07PM 39.7085 -77.7265 237° Southwest  Level Estimated
03:08PM 39.7085 -77.7265 237° Southwest  Level Estimated
03:09PM 39.7085 -77.7265 237° Southwest  Level Estimated
03:10PM 39.7085 -77.7265 237° Southwest  Level Estimated
03:11PM 39.7085 -77.7265 237° Southwest  Level Estimated
03:12PM 39.7085 -77.7265 237° Southwest  Level Estimated
03:13PM 39.7085 -77.7265 237° Southwest  Level Estimated
03:14PM 39.7085 -77.7265 237° Southwest  Level Estimated